Time;durP1;ratioP1;P1;durP2;ratioP2;P2;SDS_P1;SDS_P2;PMS_P1;PMS_P2;Temp;Humidity;BMP_temperature;BMP_pressure;BME280_temperature;BME280_humidity;BME280_pressure;Samples;Min_cycle;Max_cycle;Signal;HPM_P1;HPM_P2
2022/06/20 00:02:20;;;;;;;7.72;3.58;;;;;;;16.61;71.65;99583.34;6242204;23;20414;-77
2022/06/20 00:04:47;;;;;;;5.47;3.05;;;;;;;16.71;71.30;99578.72;6242534;23;20087;-77
2022/06/20 00:07:13;;;;;;;8.70;3.33;;;;;;;16.71;70.75;99582.28;6241428;23;20297;-77
2022/06/20 00:09:39;;;;;;;6.53;3.05;;;;;;;16.72;71.76;99574.84;6243850;23;20032;-78
2022/06/20 00:12:04;;;;;;;8.98;3.10;;;;;;;16.33;71.52;99558.66;6243733;23;20083;-76
2022/06/20 00:14:30;;;;;;;11.98;4.07;;;;;;;16.39;72.42;99551.91;6243817;23;20361;-78
2022/06/20 00:16:55;;;;;;;10.25;3.85;;;;;;;16.70;71.34;99553.13;6243220;23;20000;-79
2022/06/20 00:19:21;;;;;;;11.60;4.25;;;;;;;16.86;70.80;99550.03;6244263;23;20027;-77
2022/06/20 00:21:46;;;;;;;12.20;4.05;;;;;;;16.48;72.52;99540.16;6244627;23;19996;-77
2022/06/20 00:24:11;;;;;;;11.10;5.00;;;;;;;16.61;71.35;99550.31;6244243;23;20536;-79
2022/06/20 00:26:37;;;;;;;12.07;5.83;;;;;;;16.55;71.71;99546.88;6243092;23;19996;-78
2022/06/20 00:29:04;;;;;;;10.88;5.60;;;;;;;16.40;72.26;99536.19;6244075;23;20349;-78
2022/06/20 00:31:29;;;;;;;10.00;5.22;;;;;;;16.25;72.83;99538.16;6244751;23;20007;-77
2022/06/20 00:33:55;;;;;;;8.48;4.10;;;;;;;16.26;73.32;99527.97;6244320;23;19996;-78
2022/06/20 00:36:20;;;;;;;15.52;6.40;;;;;;;16.19;73.58;99518.22;6244006;23;20045;-77
2022/06/20 00:38:50;;;;;;;10.70;5.65;;;;;;;15.88;74.12;99507.88;6244270;23;20065;-77
2022/06/20 00:41:22;;;;;;;8.68;4.35;;;;;;;15.92;74.12;99506.13;6243197;23;20003;-77
2022/06/20 00:43:51;;;;;;;13.48;5.60;;;;;;;15.80;74.27;99522.31;6244413;23;20306;-77
2022/06/20 00:46:30;;;;;;;9.13;4.50;;;;;;;15.84;74.78;99502.19;6243504;23;20003;-77
2022/06/20 00:49:06;;;;;;;8.38;4.47;;;;;;;15.94;74.48;99495.66;6242816;23;20000;-77
2022/06/20 00:51:38;;;;;;;10.40;3.88;;;;;;;16.16;74.10;99485.84;6243269;23;20004;-77
2022/06/20 00:54:23;;;;;;;8.07;4.88;;;;;;;16.20;73.48;99464.84;6242840;23;20023;-78
2022/06/20 00:57:00;;;;;;;11.90;5.38;;;;;;;16.19;74.42;99452.22;6243417;23;20321;-78
2022/06/20 00:59:31;;;;;;;7.53;3.47;;;;;;;16.44;72.81;99461.00;6244898;23;20002;-78
2022/06/20 01:01:58;;;;;;;9.60;5.03;;;;;;;16.36;72.54;99463.66;6244882;23;19996;-78
2022/06/20 01:04:35;;;;;;;8.90;3.67;;;;;;;16.34;72.88;99486.00;6245005;23;20000;-78
2022/06/20 01:07:05;;;;;;;8.50;3.90;;;;;;;16.19;73.75;99511.91;6241590;23;20031;-78
2022/06/20 01:09:36;;;;;;;12.80;3.28;;;;;;;16.15;73.54;99530.94;6242875;23;20571;-77
2022/06/20 01:12:03;;;;;;;8.93;3.85;;;;;;;16.34;74.03;99541.81;6243457;23;20000;-78
2022/06/20 01:14:38;;;;;;;8.63;4.50;;;;;;;16.28;73.49;99558.75;6217102;23;19996;-78
2022/06/20 01:17:14;;;;;;;8.65;3.42;;;;;;;16.10;74.53;99564.06;6242696;23;20018;-77
2022/06/20 01:20:06;;;;;;;7.10;3.53;;;;;;;16.22;74.72;99556.13;6243797;23;20321;-78
2022/06/20 01:22:45;;;;;;;8.52;4.00;;;;;;;16.38;73.57;99574.22;6243855;23;20380;-77
2022/06/20 01:25:21;;;;;;;11.20;4.05;;;;;;;16.20;74.61;99580.34;6242413;23;20529;-77
2022/06/20 01:27:48;;;;;;;8.93;4.05;;;;;;;16.22;74.60;99600.13;6243127;23;19996;-78
2022/06/20 01:30:14;;;;;;;11.10;4.13;;;;;;;16.27;74.11;99595.63;6243251;23;20000;-78
2022/06/20 01:32:41;;;;;;;7.82;4.03;;;;;;;16.13;74.91;99606.66;6243778;23;20051;-77
2022/06/20 01:35:11;;;;;;;7.93;4.28;;;;;;;16.21;73.86;99641.69;6242359;23;20000;-77
2022/06/20 01:37:41;;;;;;;7.03;3.97;;;;;;;16.12;75.37;99682.81;6243683;23;19993;-78
2022/06/20 01:40:13;;;;;;;15.00;4.70;;;;;;;16.04;76.80;99722.00;6243415;23;20008;-77
2022/06/20 01:42:40;;;;;;;7.18;4.18;;;;;;;16.03;78.29;99718.44;6243254;23;19992;-78
2022/06/20 01:48:00;;;;;;;8.75;4.40;;;;;;;16.24;77.00;99756.56;6243250;23;20011;-77
2022/06/20 01:50:26;;;;;;;10.43;4.57;;;;;;;16.19;77.31;99773.19;6244078;23;20010;-78
2022/06/20 01:52:51;;;;;;;10.25;5.28;;;;;;;16.15;77.90;99781.19;6243256;23;20391;-79
2022/06/20 01:55:24;;;;;;;7.70;5.00;;;;;;;15.73;80.00;99790.13;6242666;23;19996;-78
2022/06/20 01:57:54;;;;;;;12.10;5.18;;;;;;;15.62;80.98;99788.66;6243338;23;20024;-79
2022/06/20 02:00:22;;;;;;;11.20;4.85;;;;;;;15.83;80.77;99788.31;6243772;23;20008;-77
2022/06/20 02:02:57;;;;;;;10.10;4.45;;;;;;;15.99;80.37;99773.19;6243741;23;20034;-78
2022/06/20 02:08:49;;;;;;;12.55;5.18;;;;;;;15.83;79.59;99758.91;6238049;23;20042;-79
2022/06/20 02:11:21;;;;;;;9.57;5.47;;;;;;;15.86;79.80;99749.25;6240375;23;20019;-77
2022/06/20 02:13:50;;;;;;;12.98;6.82;;;;;;;15.79;79.91;99733.13;6243339;23;20004;-78
2022/06/20 02:16:20;;;;;;;14.15;6.05;;;;;;;15.80;79.98;99731.19;6241884;23;20004;-78
2022/06/20 02:18:49;;;;;;;11.43;6.35;;;;;;;15.72;79.30;99708.78;6242478;23;20022;-78
2022/06/20 02:21:18;;;;;;;19.23;7.18;;;;;;;15.76;80.44;99698.00;6243611;23;19996;-78
2022/06/20 02:23:48;;;;;;;10.02;5.82;;;;;;;15.82;78.95;99696.81;6243759;23;20637;-77
2022/06/20 02:26:16;;;;;;;9.55;5.50;;;;;;;15.75;78.71;99675.19;6242812;23;20007;-79
2022/06/20 02:29:03;;;;;;;13.02;7.18;;;;;;;15.76;79.89;99643.84;6216694;23;19996;-78
2022/06/20 02:31:29;;;;;;;11.30;6.10;;;;;;;15.76;79.59;99632.84;6242809;23;20023;-77
2022/06/20 02:33:55;;;;;;;9.07;5.78;;;;;;;15.73;79.54;99627.16;6242284;23;20532;-79
2022/06/20 02:36:21;;;;;;;10.13;5.45;;;;;;;15.85;80.54;99591.75;6240903;23;20022;-78
2022/06/20 02:38:47;;;;;;;12.82;6.53;;;;;;;15.78;81.10;99580.34;6241986;23;20002;-77
2022/06/20 02:41:17;;;;;;;13.32;6.57;;;;;;;15.85;81.89;99568.94;6241566;23;20031;-79
2022/06/20 02:43:47;;;;;;;11.57;6.30;;;;;;;16.06;79.32;99541.88;6238121;23;20019;-78
2022/06/20 02:46:16;;;;;;;14.45;5.88;;;;;;;15.95;79.23;99518.44;6241938;23;20027;-78
2022/06/20 02:48:46;;;;;;;9.68;4.93;;;;;;;15.95;78.50;99508.25;6242907;23;20478;-78
2022/06/20 02:51:16;;;;;;;10.85;5.18;;;;;;;15.91;78.16;99509.16;6242644;23;20092;-79
2022/06/20 02:53:52;;;;;;;15.50;5.63;;;;;;;16.02;77.91;99491.38;6243371;23;20004;-78
2022/06/20 02:56:21;;;;;;;13.35;4.97;;;;;;;15.80;78.29;99489.34;6242698;23;20410;-77
2022/06/20 02:58:59;;;;;;;8.57;5.20;;;;;;;15.62;79.96;99462.47;6243114;23;20016;-78
2022/06/20 03:01:49;;;;;;;10.02;4.93;;;;;;;15.64;78.94;99437.47;6242238;23;20520;-79
2022/06/20 03:04:16;;;;;;;8.13;4.30;;;;;;;15.34;79.92;99418.53;6242095;23;20000;-76
2022/06/20 03:06:47;;;;;;;10.20;5.43;;;;;;;15.25;80.58;99423.94;6241170;23;19996;-78
2022/06/20 03:09:15;;;;;;;10.13;5.53;;;;;;;15.37;79.83;99420.69;6240508;23;20004;-78
2022/06/20 03:11:41;;;;;;;7.68;4.25;;;;;;;15.37;79.82;99422.63;6241058;23;20024;-78
2022/06/20 03:14:12;;;;;;;9.15;4.60;;;;;;;15.31;79.04;99423.84;6240585;23;20038;-78
2022/06/20 03:16:40;;;;;;;11.50;4.40;;;;;;;15.14;79.66;99409.59;6239854;23;20004;-78
2022/06/20 03:19:11;;;;;;;10.00;3.58;;;;;;;15.04;79.67;99399.63;6242710;23;20102;-78
2022/06/20 03:21:40;;;;;;;10.45;5.05;;;;;;;15.17;80.42;99397.19;6243115;23;19999;-78
2022/06/20 03:24:06;;;;;;;8.43;3.95;;;;;;;15.28;78.85;99409.59;6242374;23;20004;-77
2022/06/20 03:26:32;;;;;;;7.97;4.97;;;;;;;15.36;78.20;99415.47;6242170;23;19997;-77
2022/06/20 03:28:58;;;;;;;7.38;3.80;;;;;;;15.19;78.61;99419.66;6243119;23;20000;-77
2022/06/20 03:31:24;;;;;;;8.60;3.90;;;;;;;14.82;80.26;99409.34;6243220;23;20026;-78
2022/06/20 03:33:49;;;;;;;8.25;4.63;;;;;;;15.26;79.47;99416.50;6242785;23;20456;-78
2022/06/20 03:36:22;;;;;;;12.35;4.72;;;;;;;15.46;78.77;99401.53;6241995;23;20000;-78
2022/06/20 03:38:49;;;;;;;7.75;4.35;;;;;;;15.44;78.10;99395.53;6243400;23;20091;-78
2022/06/20 03:41:17;;;;;;;12.35;4.60;;;;;;;15.58;77.22;99411.22;6242340;23;20000;-78
2022/06/20 03:43:50;;;;;;;8.48;3.83;;;;;;;15.37;77.33;99412.44;6243732;23;20397;-77
2022/06/20 03:46:24;;;;;;;8.48;3.47;;;;;;;15.39;77.97;99412.97;6243606;23;20075;-78
2022/06/20 03:49:07;;;;;;;10.52;3.72;;;;;;;15.43;77.58;99417.81;6244532;23;20004;-79
2022/06/20 03:51:40;;;;;;;9.63;3.05;;;;;;;14.85;78.01;99420.84;6244986;23;20083;-78
2022/06/20 03:54:16;;;;;;;12.95;3.97;;;;;;;14.98;77.77;99411.00;6244924;23;20011;-77
2022/06/20 03:57:00;;;;;;;9.07;3.45;;;;;;;15.35;77.02;99419.34;6243864;23;20075;-78
2022/06/20 03:59:35;;;;;;;8.90;2.83;;;;;;;15.25;77.21;99420.38;6244066;23;20015;-77
2022/06/20 04:02:10;;;;;;;5.53;2.72;;;;;;;15.21;76.33;99414.69;6244849;23;20398;-78
2022/06/20 04:04:48;;;;;;;11.48;3.10;;;;;;;15.03;76.23;99411.72;6243802;23;20365;-78
2022/06/20 04:07:28;;;;;;;7.07;2.13;;;;;;;15.14;77.11;99425.25;6243681;23;19996;-77
2022/06/20 04:13:03;;;;;;;9.43;2.83;;;;;;;15.35;76.29;99441.31;6243018;23;20401;-78
2022/06/20 04:15:57;;;;;;;6.28;2.90;;;;;;;15.44;75.78;99455.97;6242637;23;20000;-78
2022/06/20 04:18:42;;;;;;;9.05;3.17;;;;;;;15.32;75.82;99463.91;6245238;23;20287;-78
2022/06/20 04:21:19;;;;;;;9.95;2.67;;;;;;;15.42;77.11;99491.16;6245259;23;20683;-77
2022/06/20 04:24:10;;;;;;;8.60;3.13;;;;;;;15.24;77.09;99518.41;6246756;23;19996;-79
2022/06/20 04:26:44;;;;;;;9.63;4.05;;;;;;;15.13;78.35;99522.47;6242764;23;19996;-78
2022/06/20 04:29:19;;;;;;;;;;;;;;;14.94;77.46;99526.06;6243720;23;20381;-78
2022/06/20 04:32:14;;;;;;;6.55;2.90;;;;;;;15.25;77.64;99541.19;6244560;23;19942;-77
2022/06/20 04:34:47;;;;;;;10.20;3.83;;;;;;;15.27;77.68;99548.03;6243827;23;20000;-77
2022/06/20 04:37:42;;;;;;;6.30;2.95;;;;;;;15.34;77.03;99555.03;6243955;23;20042;-77
2022/06/20 04:40:33;;;;;;;10.07;3.47;;;;;;;15.14;77.24;99563.34;6241729;23;20008;-77
2022/06/20 04:43:14;;;;;;;8.27;2.65;;;;;;;15.02;78.30;99579.47;6243667;23;20330;-77
2022/06/20 04:45:51;;;;;;;9.13;3.50;;;;;;;14.99;78.94;99594.59;6243136;23;20004;-78
2022/06/20 04:48:20;;;;;;;10.32;3.05;;;;;;;15.27;79.01;99607.63;6243561;23;20418;-78
2022/06/20 04:50:49;;;;;;;9.43;4.65;;;;;;;15.14;78.88;99628.41;6243319;23;19996;-77
2022/06/20 04:53:28;;;;;;;7.53;3.20;;;;;;;14.98;79.68;99641.56;6243397;23;20012;-77
2022/06/20 04:55:59;;;;;;;9.30;3.63;;;;;;;14.98;79.68;99658.84;6243216;23;20042;-77
2022/06/20 04:58:28;;;;;;;12.75;4.22;;;;;;;15.15;80.02;99674.00;6243141;23;20008;-78
2022/06/20 05:00:54;;;;;;;8.43;3.60;;;;;;;15.00;81.44;99700.56;6243880;23;20015;-78
2022/06/20 05:03:30;;;;;;;11.90;4.00;;;;;;;14.90;81.75;99714.41;6243257;23;19997;-78
2022/06/20 05:05:58;;;;;;;15.82;4.05;;;;;;;14.88;81.46;99713.88;6242585;23;20012;-78
2022/06/20 05:08:31;;;;;;;11.88;4.55;;;;;;;14.98;82.35;99708.25;6243120;23;19992;-78
2022/06/20 05:11:01;;;;;;;10.00;3.67;;;;;;;15.00;81.26;99708.78;6243735;23;20111;-78
2022/06/20 05:13:38;;;;;;;9.40;4.25;;;;;;;14.57;82.57;99715.06;6243337;23;19996;-77
2022/06/20 05:16:11;;;;;;;11.18;4.05;;;;;;;14.91;81.95;99708.63;6242917;23;19996;-78
2022/06/20 05:18:42;;;;;;;13.63;4.80;;;;;;;14.96;80.80;99705.00;6243724;23;20004;-78
2022/06/20 05:21:14;;;;;;;8.10;3.90;;;;;;;14.99;81.10;99692.63;6243557;23;20011;-77
2022/06/20 05:23:44;;;;;;;10.38;3.38;;;;;;;15.02;80.29;99692.84;6243625;23;20421;-77
2022/06/20 05:26:15;;;;;;;8.13;3.53;;;;;;;14.99;80.28;99693.41;6242919;23;20003;-77
2022/06/20 05:28:42;;;;;;;11.23;4.70;;;;;;;14.95;81.53;99689.63;6243362;23;20364;-78
2022/06/20 05:31:07;;;;;;;15.90;5.28;;;;;;;15.01;81.21;99695.88;6242768;23;20032;-78
2022/06/20 05:34:11;;;;;;;11.60;4.38;;;;;;;14.93;79.67;99689.09;6243123;23;20003;-77
2022/06/20 05:36:49;;;;;;;7.82;4.07;;;;;;;14.98;81.09;99691.78;6206052;23;20011;-78
2022/06/20 05:39:28;;;;;;;10.30;4.60;;;;;;;14.99;81.35;99687.91;6242752;23;20004;-77
2022/06/20 05:41:53;;;;;;;13.75;4.57;;;;;;;15.02;79.84;99692.84;6243135;23;20075;-77
2022/06/20 05:44:19;;;;;;;10.15;4.35;;;;;;;14.86;80.83;99696.91;6243203;23;20073;-78
2022/06/20 05:46:50;;;;;;;13.70;4.13;;;;;;;15.01;81.41;99696.69;6242052;23;20287;-78
2022/06/20 05:49:25;;;;;;;9.63;3.35;;;;;;;15.10;80.15;99693.25;6242374;23;20004;-78
2022/06/20 05:51:51;;;;;;;8.98;3.05;;;;;;;15.13;78.71;99700.94;6243518;23;20031;-78
2022/06/20 05:54:21;;;;;;;16.40;3.58;;;;;;;15.19;78.90;99690.69;6242562;23;20000;-78
2022/06/20 05:56:51;;;;;;;7.25;3.03;;;;;;;15.18;77.91;99689.84;6239914;23;20352;-78
2022/06/20 05:59:26;;;;;;;11.73;3.75;;;;;;;15.25;78.82;99686.75;6242946;23;20352;-77
2022/06/20 06:01:55;;;;;;;10.20;4.78;;;;;;;15.21;78.62;99693.94;6243499;23;20588;-78
2022/06/20 06:04:39;;;;;;;16.23;6.00;;;;;;;15.34;79.84;99690.44;6242687;23;20483;-77
2022/06/20 06:07:16;;;;;;;14.07;4.60;;;;;;;15.10;79.21;99687.78;6242310;23;20482;-78
2022/06/20 06:10:02;;;;;;;9.45;4.38;;;;;;;15.26;78.98;99691.94;6243364;23;20000;-78
2022/06/20 06:12:33;;;;;;;7.57;4.30;;;;;;;15.28;79.73;99694.38;6242730;23;20004;-78
2022/06/20 06:15:12;;;;;;;9.30;3.85;;;;;;;15.28;79.32;99699.88;6242492;23;20061;-78
2022/06/20 06:17:43;;;;;;;11.57;3.85;;;;;;;15.14;78.27;99702.53;6243101;23;20000;-77
2022/06/20 06:20:17;;;;;;;13.07;4.28;;;;;;;15.13;79.37;99689.94;6242546;23;19993;-78
2022/06/20 06:22:47;;;;;;;7.65;3.40;;;;;;;15.27;78.67;99688.09;6242750;23;20000;-77
2022/06/20 06:25:19;;;;;;;9.65;3.88;;;;;;;15.34;77.46;99686.88;6241929;23;20019;-77
2022/06/20 06:27:47;;;;;;;9.98;4.57;;;;;;;15.19;77.25;99669.53;6242278;23;20007;-77
2022/06/20 06:30:19;;;;;;;7.65;3.35;;;;;;;15.18;78.69;99678.88;6241741;23;20087;-79
2022/06/20 06:33:27;;;;;;;10.43;4.40;;;;;;;14.98;79.80;99678.06;6241122;23;20010;-78
2022/06/20 06:36:10;;;;;;;9.18;2.95;;;;;;;14.98;79.64;99680.81;6146371;23;20009;-77
2022/06/20 06:38:43;;;;;;;10.07;4.22;;;;;;;15.07;79.26;99666.41;6238650;23;20079;-78
2022/06/20 06:41:23;;;;;;;7.27;3.03;;;;;;;15.17;79.82;99667.06;6242268;23;20004;-77
2022/06/20 06:43:51;;;;;;;9.93;3.53;;;;;;;15.08;78.66;99668.88;6242609;23;20007;-77
2022/06/20 06:46:39;;;;;;;10.55;3.28;;;;;;;15.20;79.96;99649.19;6241100;23;20038;-78
2022/06/20 06:49:16;;;;;;;8.40;3.92;;;;;;;14.99;77.66;99654.97;6241916;23;20015;-79
2022/06/20 06:51:52;;;;;;;9.80;3.42;;;;;;;15.26;77.88;99669.97;6242808;23;20004;-78
2022/06/20 06:54:24;;;;;;;13.43;3.47;;;;;;;15.47;77.40;99680.63;6242756;23;20000;-78
2022/06/20 06:56:59;;;;;;;9.80;3.08;;;;;;;15.17;76.81;99689.03;6240900;23;20000;-77
2022/06/20 06:59:40;;;;;;;10.23;3.40;;;;;;;15.28;77.99;99694.38;6241753;23;20004;-78
2022/06/20 07:02:14;;;;;;;10.98;3.45;;;;;;;15.32;77.14;99691.84;6213460;23;20007;-78
2022/06/20 07:05:02;;;;;;;17.38;5.18;;;;;;;15.19;77.14;99693.41;6239989;23;19996;-78
2022/06/20 07:07:49;;;;;;;9.35;3.45;;;;;;;15.40;78.25;99696.66;6240150;23;20004;-78
2022/06/20 07:10:31;;;;;;;14.27;3.63;;;;;;;15.35;77.72;99691.25;6241858;23;20190;-78
2022/06/20 07:13:04;;;;;;;12.93;4.35;;;;;;;15.42;77.68;99688.94;6215899;23;20008;-78
2022/06/20 07:15:32;;;;;;;11.63;4.07;;;;;;;15.51;75.74;99700.88;6241343;23;20019;-77
2022/06/20 07:18:05;;;;;;;14.80;3.63;;;;;;;15.55;75.88;99705.78;6242441;23;20061;-77
2022/06/20 07:20:35;;;;;;;11.23;4.07;;;;;;;15.27;78.05;99707.31;6242001;23;20000;-78
2022/06/20 07:23:05;;;;;;;16.60;3.22;;;;;;;15.58;77.37;99721.66;6215362;23;20000;-77
2022/06/20 07:25:37;;;;;;;8.90;3.33;;;;;;;15.66;78.30;99717.41;6241377;23;20004;-77
2022/06/20 07:28:10;;;;;;;10.60;4.55;;;;;;;15.73;77.85;99715.91;6242232;23;20024;-78
2022/06/20 07:30:45;;;;;;;8.38;3.55;;;;;;;15.47;76.49;99716.34;6242421;23;20055;-77
2022/06/20 07:33:20;;;;;;;10.88;3.47;;;;;;;15.91;76.04;99707.91;6241903;23;20007;-77
2022/06/20 07:35:49;;;;;;;13.02;3.30;;;;;;;16.11;75.11;99711.44;6239698;23;20008;-77
2022/06/20 07:38:30;;;;;;;10.45;5.25;;;;;;;16.22;75.26;99714.81;6240783;23;20062;-77
2022/06/20 07:41:04;;;;;;;12.57;3.97;;;;;;;16.18;76.41;99720.09;6214325;23;20011;-77
2022/06/20 07:43:36;;;;;;;16.98;4.65;;;;;;;16.30;76.01;99718.78;6242635;23;20075;-78
2022/06/20 07:46:14;;;;;;;13.57;3.53;;;;;;;16.45;75.37;99729.47;6241042;23;20035;-78
2022/06/20 07:48:42;;;;;;;14.32;3.45;;;;;;;16.78;74.52;99725.78;6241395;23;19992;-78
2022/06/20 07:51:14;;;;;;;11.68;4.65;;;;;;;16.44;74.27;99730.63;6243151;23;20038;-79
2022/06/20 07:53:57;;;;;;;9.13;3.25;;;;;;;16.73;74.13;99744.38;6240405;23;20418;-78
2022/06/20 07:57:00;;;;;;;8.65;2.67;;;;;;;16.54;72.27;99739.78;6240286;23;20035;-77
2022/06/20 07:59:47;;;;;;;11.95;4.82;;;;;;;16.55;73.43;99734.00;6194152;23;20473;-77
2022/06/20 08:02:32;;;;;;;8.73;2.80;;;;;;;16.74;74.30;99741.28;6241278;23;20012;-78
2022/06/20 08:05:00;;;;;;;7.68;3.55;;;;;;;16.78;73.02;99725.78;6241085;23;20519;-77
2022/06/20 08:07:35;;;;;;;12.65;2.90;;;;;;;16.73;72.60;99720.41;6240940;23;20067;-77
2022/06/20 08:10:22;;;;;;;14.13;4.13;;;;;;;16.75;71.10;99717.34;6241657;23;20006;-77
2022/06/20 08:12:55;;;;;;;9.27;2.75;;;;;;;17.07;72.33;99720.22;6241451;23;20011;-77
2022/06/20 08:15:23;;;;;;;11.43;3.45;;;;;;;17.11;72.26;99727.56;6240878;23;20031;-77
2022/06/20 08:17:50;;;;;;;8.25;2.50;;;;;;;17.20;70.24;99729.63;6241914;23;20286;-77
2022/06/20 08:20:16;;;;;;;11.43;3.25;;;;;;;17.06;69.29;99735.97;6239926;23;20003;-76
2022/06/20 08:22:52;;;;;;;5.03;1.85;;;;;;;17.03;69.44;99736.56;6240307;23;20006;-77
2022/06/20 08:25:34;;;;;;;14.38;2.95;;;;;;;17.09;69.66;99734.50;6239152;23;19996;-77
2022/06/20 08:28:11;;;;;;;5.68;2.08;;;;;;;17.20;69.66;99743.41;6240769;23;19996;-77
2022/06/20 08:30:40;;;;;;;6.60;1.65;;;;;;;17.27;67.57;99752.84;6242094;23;20011;-77
2022/06/20 08:33:21;;;;;;;5.15;1.98;;;;;;;17.68;68.19;99743.94;6242978;23;19996;-78
2022/06/20 08:36:15;;;;;;;7.53;2.00;;;;;;;17.81;66.76;99761.53;6242324;23;20099;-77
2022/06/20 08:38:49;;;;;;;8.80;2.78;;;;;;;17.71;65.53;99759.84;6242819;23;20031;-77
2022/06/20 08:41:25;;;;;;;5.80;1.67;;;;;;;18.04;65.07;99759.56;6242777;23;20441;-79
2022/06/20 08:44:17;;;;;;;2.67;1.35;;;;;;;18.16;63.41;99769.22;6243388;23;20000;-77
2022/06/20 08:47:09;;;;;;;6.35;1.20;;;;;;;18.05;62.16;99768.66;6242072;23;20405;-77
2022/06/20 08:50:03;;;;;;;5.95;1.65;;;;;;;18.35;60.73;99781.97;6242786;23;20448;-78
2022/06/20 08:52:50;;;;;;;4.57;1.85;;;;;;;17.95;62.29;99787.09;6243139;23;20079;-77
2022/06/20 08:55:35;;;;;;;7.82;2.13;;;;;;;17.70;61.82;99780.25;6242440;23;20022;-77
2022/06/20 08:58:29;;;;;;;5.63;1.95;;;;;;;17.56;64.19;99789.41;6243568;23;20027;-77
2022/06/20 09:01:15;;;;;;;6.55;1.90;;;;;;;17.59;64.63;99786.00;6242899;23;20653;-77
2022/06/20 09:03:46;;;;;;;5.13;2.03;;;;;;;17.80;66.22;99785.53;6195422;23;20000;-77
2022/06/20 09:06:48;;;;;;;4.53;2.13;;;;;;;17.82;65.27;99793.47;6242150;23;20322;-78
2022/06/20 09:09:41;;;;;;;8.68;2.55;;;;;;;17.58;62.94;99792.66;6242876;23;20058;-79
2022/06/20 09:12:33;;;;;;;9.27;2.88;;;;;;;17.68;63.29;99797.13;6243198;23;20019;-77
2022/06/20 09:15:25;;;;;;;7.60;2.90;;;;;;;18.12;63.60;99795.81;6241984;23;20004;-77
2022/06/20 09:18:04;;;;;;;12.50;3.08;;;;;;;18.59;64.02;99798.16;6216420;23;20007;-77
2022/06/20 09:20:42;;;;;;;8.63;3.10;;;;;;;18.77;60.35;99799.03;6242473;23;20000;-77
2022/06/20 09:23:17;;;;;;;14.35;4.32;;;;;;;19.19;59.28;99786.84;6242596;23;20014;-78
2022/06/20 09:26:04;;;;;;;6.03;2.53;;;;;;;19.36;57.64;99788.00;6241666;23;20177;-77
2022/06/20 09:28:48;;;;;;;6.47;2.58;;;;;;;19.59;55.33;99788.63;6242354;23;20089;-78
2022/06/20 09:31:34;;;;;;;5.45;2.50;;;;;;;19.41;55.29;99796.13;6242536;23;20008;-77
2022/06/20 09:34:17;;;;;;;5.32;2.65;;;;;;;19.01;57.33;99797.84;6242517;23;20408;-78
2022/06/20 09:36:58;;;;;;;7.38;2.92;;;;;;;18.86;58.77;99795.50;6240685;23;20018;-78
2022/06/20 09:39:26;;;;;;;10.48;3.35;;;;;;;19.05;57.41;99794.41;6241988;23;20004;-77
2022/06/20 09:42:00;;;;;;;8.15;3.28;;;;;;;19.40;57.05;99802.81;6241663;23;20349;-77
2022/06/20 09:45:12;;;;;;;7.85;2.53;;;;;;;19.41;56.42;99793.34;6241918;23;20000;-77
2022/06/20 09:48:05;;;;;;;5.05;2.13;;;;;;;19.09;54.62;99800.94;6148783;23;20334;-77
2022/06/20 09:50:52;;;;;;;4.63;1.65;;;;;;;18.68;55.79;99809.25;6147939;23;20009;-78
2022/06/20 09:53:36;;;;;;;7.30;2.90;;;;;;;18.28;53.75;99804.53;6227960;23;20000;-77
2022/06/20 09:56:19;;;;;;;7.00;2.50;;;;;;;18.05;54.48;99805.34;6241536;23;20400;-77
2022/06/20 09:58:57;;;;;;;5.50;2.80;;;;;;;18.38;56.00;99801.50;6241953;23;20004;-77
2022/06/20 10:01:44;;;;;;;5.07;2.70;;;;;;;18.43;56.34;99814.31;6241660;23;20065;-78
2022/06/20 10:04:46;;;;;;;7.82;2.17;;;;;;;19.11;54.04;99806.94;6241646;23;20004;-78
2022/06/20 10:07:37;;;;;;;11.52;2.90;;;;;;;19.82;53.25;99804.25;6241664;23;20000;-77
2022/06/20 10:10:27;;;;;;;5.65;2.53;;;;;;;20.23;51.60;99807.63;6241958;23;20397;-77
2022/06/20 10:13:22;;;;;;;5.85;2.03;;;;;;;20.04;49.72;99810.72;6242381;23;20310;-78
2022/06/20 10:16:07;;;;;;;4.25;2.00;;;;;;;20.34;48.52;99810.03;6241177;23;20365;-77
2022/06/20 10:18:45;;;;;;;3.92;1.55;;;;;;;20.45;48.06;99800.22;6241708;23;20083;-78
2022/06/20 10:21:31;;;;;;;4.30;1.92;;;;;;;20.21;49.75;99809.91;6241894;23;20035;-77
2022/06/20 10:24:23;;;;;;;4.47;1.83;;;;;;;20.47;48.40;99805.44;6242144;23;20000;-79
2022/06/20 10:27:05;;;;;;;2.90;1.65;;;;;;;20.33;48.81;99817.53;6240450;23;20102;-77
2022/06/20 10:29:37;;;;;;;4.15;1.83;;;;;;;20.60;50.11;99823.81;6242059;23;20000;-77
2022/06/20 10:32:09;;;;;;;4.22;2.35;;;;;;;20.38;49.47;99817.34;6242015;23;20023;-78
2022/06/20 10:34:56;;;;;;;6.57;2.60;;;;;;;19.58;48.87;99822.97;6240904;23;20008;-77
2022/06/20 10:37:41;;;;;;;11.55;2.95;;;;;;;19.78;50.84;99822.63;6241225;23;20616;-77
2022/06/20 10:40:41;;;;;;;6.85;2.22;;;;;;;19.92;50.49;99839.88;6214275;23;20023;-78
2022/06/20 10:43:23;;;;;;;4.60;2.13;;;;;;;20.01;50.68;99836.28;6241131;23;20000;-79
2022/06/20 10:45:58;;;;;;;3.35;2.10;;;;;;;20.40;50.71;99826.13;6211009;23;20004;-77
2022/06/20 10:48:24;;;;;;;5.88;2.60;;;;;;;20.95;48.30;99835.88;6240716;23;20369;-78
2022/06/20 10:51:01;;;;;;;4.55;3.10;;;;;;;20.64;47.32;99837.78;6238725;23;20004;-77
2022/06/20 10:53:41;;;;;;;10.43;2.85;;;;;;;20.36;47.29;99829.91;6240759;23;20000;-77
2022/06/20 10:56:31;;;;;;;7.70;2.47;;;;;;;20.28;49.54;99845.38;6240340;23;19996;-78
2022/06/20 10:59:05;;;;;;;6.63;2.05;;;;;;;20.22;48.45;99841.97;6239956;23;20429;-77
2022/06/20 11:04:57;;;;;;;7.15;3.10;;;;;;;19.87;49.08;99848.31;6235423;23;20019;-79
2022/06/20 11:10:51;;;;;;;4.18;1.83;;;;;;;20.70;48.33;99855.03;6259086;23;20015;-78
2022/06/20 11:13:45;;;;;;;6.97;2.60;;;;;;;21.10;47.56;99848.34;6237112;23;19992;-78
2022/06/20 11:16:28;;;;;;;7.10;2.67;;;;;;;20.72;44.82;99847.22;6239416;23;20004;-77
2022/06/20 11:19:18;;;;;;;5.15;1.63;;;;;;;21.08;43.72;99845.94;6240069;23;20000;-78
2022/06/20 11:22:51;;;;;;;6.00;2.15;;;;;;;21.50;45.91;99838.78;6239376;23;20008;-77
2022/06/20 11:25:32;;;;;;;8.57;2.45;;;;;;;20.77;44.26;99844.25;6144404;23;20487;-78
2022/06/20 11:28:25;;;;;;;8.57;2.50;;;;;;;20.51;45.48;99845.97;6146054;23;20010;-78
2022/06/20 11:31:07;;;;;;;11.55;3.25;;;;;;;21.46;44.96;99841.44;6218091;23;20000;-78
2022/06/20 11:34:06;;;;;;;4.97;2.00;;;;;;;21.67;45.35;99834.28;6240574;23;20654;-78
2022/06/20 11:36:50;;;;;;;5.25;2.33;;;;;;;21.45;43.99;99833.47;6239355;23;20038;-77
2022/06/20 11:40:06;;;;;;;10.15;2.00;;;;;;;20.65;44.13;99843.00;6240324;23;20004;-78
2022/06/20 11:42:47;;;;;;;4.53;2.20;;;;;;;21.55;43.10;99832.25;6240885;23;20007;-78
2022/06/20 11:45:31;;;;;;;3.83;1.67;;;;;;;21.51;42.86;99829.34;6239089;23;20015;-78
2022/06/20 11:48:46;;;;;;;8.63;2.88;;;;;;;21.13;43.14;99833.03;6240551;23;20000;-78
2022/06/20 11:51:19;;;;;;;7.85;3.20;;;;;;;21.36;42.49;99832.72;6105641;23;20034;-78
2022/06/20 11:53:50;;;;;;;;;;;;;;;21.38;44.02;99833.19;6241562;23;20067;-78
2022/06/20 11:56:30;;;;;;;4.40;2.35;;;;;;;20.83;43.21;99837.38;6239224;23;19907;-78
2022/06/20 11:59:12;;;;;;;4.30;1.80;;;;;;;20.73;42.98;99843.28;6241081;23;20046;-78
2022/06/20 12:01:46;;;;;;;5.50;2.17;;;;;;;;;;6240855;23;20045;-78
2022/06/20 12:04:34;;;;;;;4.45;2.20;;;;;;;21.26;42.82;99829.19;6242542;23;20155;-78
2022/06/20 12:07:11;;;;;;;5.78;2.85;;;;;;;21.11;42.94;99833.38;6241596;23;20193;-79
2022/06/20 12:09:44;;;;;;;4.78;2.17;;;;;;;21.15;44.02;99839.03;6242904;23;20008;-78
2022/06/20 12:12:28;;;;;;;6.07;2.70;;;;;;;20.92;42.01;99840.13;6243090;23;19996;-78
2022/06/20 12:15:18;;;;;;;6.93;3.13;;;;;;;20.86;43.22;99836.72;6242294;23;20011;-79
2022/06/20 12:18:09;;;;;;;5.05;2.85;;;;;;;21.11;45.57;99836.13;6242700;23;20451;-79
2022/06/20 12:23:41;;;;;;;3.65;2.15;;;;;;;21.83;42.09;99828.13;6242727;23;20095;-78
2022/06/20 12:26:11;;;;;;;4.95;2.20;;;;;;;21.04;41.91;99830.28;6241859;23;20472;-78
2022/06/20 12:28:40;;;;;;;4.30;1.60;;;;;;;20.97;42.06;99822.53;6242997;23;20007;-78
2022/06/20 12:31:13;;;;;;;4.57;1.70;;;;;;;21.36;42.25;99818.88;6243389;23;19996;-79
2022/06/20 12:33:46;;;;;;;7.28;2.28;;;;;;;22.04;40.99;99815.03;6243390;23;20036;-78
2022/06/20 12:36:22;;;;;;;8.02;2.78;;;;;;;22.72;40.14;99820.50;6241165;23;20004;-78